sim
Sign-in with your pilot id or email,
or register
Callsign
Passwort

Schedule Details

Flight Number: UAE89
Departure: Dubai International Airport (OMDB) at 04:40
Arrival: Geneva International Airport (LSGG) at 11:45
Route: Emirates Passenger Schedule. Enter filed route here before submitting Pirep.

Weather Information
Getting current METAR information for OMDB 101500Z 03008KT 360V060 CAVOK 33/13 Q1008 NOSIG
Getting current METAR information for LSGG 101650Z 24009KT 9999 FEW080 14/02 Q1012 NOSIG

Schedule Frequency

Route Map